Flight Track Log - Related Links

Times and Time Zones

All times are in EDT time to prevent confusion due to time zone crossing. See the AAY894 flight status page for this flight to view local times or setup timezone preferences in your user account.

Time Position Orientation Groundspeed Altitude Reporting Facility
EDT Latitude Longitude Course Direction KTS MPH feet Rate Location/Type
Sat 07:11:56 AM 27.9000 -82.6833 180° South 180 207 700  Level Tampa TRACON
Sat 07:12:44 AM 27.8500 -82.6833 180° South 177 204 2,300 2,013 Climbing Tampa TRACON
Sat 07:14:28 AM 27.8975 -82.7728 301° West 210 242 5,800 1,354 Climbing Jacksonville Center
Sat 07:15:28 AM 27.9767 -82.7539 12° North 208 239 6,000 1,150 Climbing Jacksonville Center
Sat 07:16:28 AM 28.0517 -82.7375 11° North 240 276 8,100 2,300 Climbing Jacksonville Center
Sat 07:17:28 AM 28.1289 -82.7183 12° North 263 303 10,600 1,950 Climbing Jacksonville Center
Sat 07:18:28 AM 28.2186 -82.7158 North 294 338 12,000 1,800 Climbing Jacksonville Center
Sat 07:19:28 AM 28.3231 -82.7064 North 334 384 14,200 2,150 Climbing Jacksonville Center
Sat 07:20:28 AM 28.4294 -82.7014 North 365 420 16,300 2,100 Climbing Jacksonville Center
Sat 07:21:28 AM 28.5358 -82.6942 North 379 436 18,400 1,950 Climbing Jacksonville Center
Sat 07:22:28 AM 28.6528 -82.6867 North 397 457 20,200 1,750 Climbing Jacksonville Center
Sat 07:23:28 AM 28.7633 -82.6794 North 402 463 21,900 1,000 Climbing Jacksonville Center
Sat 07:24:28 AM 28.8739 -82.6839 358° North 402 463 22,200 850 Climbing Jacksonville Center
Sat 07:25:28 AM 28.9783 -82.7311 338° Northwest 390 449 23,600 1,350 Climbing Jacksonville Center
Sat 07:26:28 AM 29.0847 -82.7808 338° Northwest 398 458 24,900 1,000 Climbing Jacksonville Center
Sat 07:27:28 AM 29.1933 -82.7878 357° North 398 458 25,600 500 Climbing Jacksonville Center
Sat 07:28:28 AM 29.3103 -82.7736 North 398 458 25,900 450 Climbing Jacksonville Center
Sat 07:29:28 AM 29.4272 -82.7592 North 410 472 26,500 950 Climbing Jacksonville Center
Sat 07:30:28 AM 29.5336 -82.7494 North 417 480 27,800 1,350 Climbing Jacksonville Center
Sat 07:31:28 AM 29.6464 -82.7347 North 417 480 29,200 1,500 Climbing Jacksonville Center
Sat 07:32:28 AM 29.7611 -82.7228 North 417 480 30,800 900 Climbing Jacksonville Center
Sat 07:33:28 AM 29.8717 -82.7106 North 403 464 31,000 100 Climbing Jacksonville Center
Sat 07:34:28 AM 29.9825 -82.6958 North 403 464 31,000 -50 Level Jacksonville Center
Sat 07:35:28 AM 30.0950 -82.6814 North 403 464 30,900  Descending Jacksonville Center
Sat 07:36:28 AM 30.2058 -82.6667 North 403 464 31,000 50 Climbing Jacksonville Center
Sat 07:37:28 AM 30.3144 -82.6544 North 409 471 31,000  Level Jacksonville Center
Sat 07:38:28 AM 30.4394 -82.6397 North 409 471 31,000  Level Jacksonville Center
Sat 07:39:28 AM 30.5378 -82.6319 North 403 464 31,000  Level Jacksonville Center
Sat 07:40:28 AM 30.6483 -82.6172 North 403 464 31,000 100 Level Jacksonville Center
Sat 07:41:28 AM 30.7589 -82.6050 North 403 464 31,200 600 Climbing Jacksonville Center
Sat 07:42:28 AM 30.8717 -82.5925 North 403 464 32,200 850 Climbing Jacksonville Center
Sat 07:43:28 AM 30.9781 -82.5800 North 398 458 32,900 400 Climbing Jacksonville Center
Sat 07:44:28 AM 31.0886 -82.5650 North 398 458 33,000 50 Climbing Jacksonville Center
Sat 07:45:28 AM 31.2014 -82.5500 North 398 458 33,000  Level Jacksonville Center
Sat 07:46:28 AM 31.3081 -82.5400 North 398 458 33,000  Level Jacksonville Center
Sat 07:47:28 AM 31.4311 -82.5200 North 398 458 33,000  Level Jacksonville Center
Sat 07:48:28 AM 31.5397 -82.5075 North 398 458 33,000  Level Jacksonville Center
Sat 07:50:03 AM 31.7139 -82.4839 North 393 452 33,000  Level Atlanta Center
Sat 07:51:03 AM 31.8200 -82.4672 North 393 452 33,000  Level Atlanta Center
Sat 07:52:03 AM 31.9283 -82.4483 North 388 447 33,000  Level Atlanta Center
Sat 07:53:03 AM 32.0386 -82.4292 North 388 447 33,000  Level Atlanta Center
Sat 07:54:03 AM 32.1469 -82.4150 North 388 447 33,000  Level Atlanta Center
Sat 07:55:03 AM 32.2325 -82.3986 North 388 447 33,000  Level Atlanta Center
Sat 07:56:03 AM 32.3511 -82.3719 11° North 388 447 33,000  Level Atlanta Center
Sat 07:57:03 AM 32.4633 -82.3475 10° North 388 447 33,000  Level Atlanta Center
Sat 07:58:03 AM 32.5717 -82.3233 11° North 388 447 33,000  Level Atlanta Center
Sat 07:59:03 AM 32.6819 -82.3014 10° North 393 452 33,000  Level Atlanta Center
Sat 08:00:03 AM 32.7922 -82.2769 11° North 393 452 33,000  Level Atlanta Center
Sat 08:01:03 AM 32.9025 -82.2550 North 393 452 33,000  Level Atlanta Center
Sat 08:02:03 AM 33.0150 -82.2303 10° North 393 452 33,000  Level Atlanta Center
Sat 08:03:03 AM 33.1292 -82.2033 11° North 398 458 33,000  Level Atlanta Center
Sat 08:04:03 AM 33.2394 -82.1786 11° North 403 464 33,000  Level Atlanta Center
Sat 08:05:03 AM 33.3539 -82.1536 10° North 409 471 33,000  Level Atlanta Center
Sat 08:06:03 AM 33.4664 -82.1289 10° North 409 471 33,000  Level Atlanta Center
Sat 08:07:03 AM 33.5828 -82.1039 10° North 414 476 33,000  Level Atlanta Center
Sat 08:08:03 AM 33.7097 -82.0736 11° North 414 476 33,000  Level Atlanta Center
Sat 08:09:03 AM 33.8261 -82.0483 10° North 419 482 33,000  Level Atlanta Center
Sat 08:10:03 AM 33.9447 -82.0231 10° North 419 482 33,000  Level Atlanta Center
Sat 08:11:03 AM 34.0592 -81.9978 10° North 419 482 33,000  Level Atlanta Center
Sat 08:12:03 AM 34.1817 -81.9722 10° North 429 494 33,000  Level Atlanta Center
Sat 08:13:03 AM 34.2961 -81.9442 11° North 429 494 33,000  Level Atlanta Center
Sat 08:14:03 AM 34.4186 -81.9161 11° North 429 494 33,000  Level Atlanta Center
Sat 08:15:03 AM 34.5372 -81.8903 10° North 429 494 33,000  Level Atlanta Center
Sat 08:16:03 AM 34.6558 -81.8672 North 429 494 33,000  Level Atlanta Center
Sat 08:17:03 AM 34.7722 -81.8364 12° North 429 494 33,000  Level Atlanta Center
Sat 08:18:03 AM 34.8928 -81.8128 North 429 494 33,000  Level Atlanta Center
Sat 08:19:03 AM 35.0131 -81.7842 11° North 429 494 33,000  Level Atlanta Center
Sat 08:20:03 AM 35.1336 -81.7581 10° North 429 494 33,000  Level Atlanta Center
Sat 08:21:03 AM 35.2522 -81.7294 11° North 429 494 33,000  Level Atlanta Center
Sat 08:22:03 AM 35.3706 -81.7031 10° North 429 494 33,000  Level Atlanta Center
Sat 08:23:03 AM 35.4911 -81.6769 10° North 429 494 33,000  Level Atlanta Center
Sat 08:24:03 AM 35.6094 -81.6478 11° North 429 494 33,000  Level Atlanta Center
Sat 08:25:03 AM 35.7319 -81.6186 11° North 429 494 33,000  Level Atlanta Center
Sat 08:26:03 AM 35.8522 -81.5894 11° North 429 494 33,000  Level Atlanta Center
Sat 08:27:03 AM 35.9708 -81.5628 10° North 429 494 33,000  Level Atlanta Center
Sat 08:28:03 AM 36.0767 -81.5389 10° North 429 494 33,000  Level Atlanta Center
Sat 08:29:03 AM 36.1928 -81.5072 12° North 429 494 33,000  Level Atlanta Center
Sat 08:30:03 AM 36.3111 -81.4803 10° North 429 494 33,000  Level Atlanta Center
Sat 08:31:03 AM 36.4292 -81.4481 12° North 429 494 33,000  Level Atlanta Center
Sat 08:32:03 AM 36.5497 -81.4208 10° North 429 494 33,000  Level Atlanta Center
Sat 08:34:25 AM 36.8456 -81.3353 13° North 449 517 33,000  Level Indianapolis Center
Sat 08:35:26 AM 36.9606 -81.2878 18° North 449 517 33,000  Level Indianapolis Center
Sat 08:36:28 AM 37.0781 -81.2411 18° North 449 517 33,000  Level Indianapolis Center
Sat 08:37:29 AM 37.1972 -81.1925 18° North 450 518 33,000  Level Indianapolis Center
Sat 08:38:31 AM 37.3089 -81.1461 18° North 448 516 33,000  Level Indianapolis Center
Sat 08:39:32 AM 37.4483 -81.0883 18° North 449 517 33,000  Level Indianapolis Center
Sat 08:40:34 AM 37.5661 -81.0403 18° North 449 517 33,000  Level Indianapolis Center
Sat 08:41:35 AM 37.6833 -80.9925 18° North 451 519 33,000  Level Indianapolis Center
Sat 08:42:37 AM 37.8194 -80.9364 18° North 451 519 33,000  Level Indianapolis Center
Sat 08:43:38 AM 37.9389 -80.8864 18° North 451 519 33,000  Level Indianapolis Center
Sat 08:44:40 AM 38.0578 -80.8381 18° North 451 519 33,000  Level Indianapolis Center
Sat 08:45:41 AM 38.1781 -80.7872 18° North 451 519 33,000  Level Indianapolis Center
Sat 08:46:43 AM 38.2981 -80.7358 19° North 452 520 33,000  Level Indianapolis Center
Sat 08:47:45 AM 38.4183 -80.6858 18° North 453 521 33,000  Level Indianapolis Center
Sat 08:48:46 AM 38.5394 -80.6344 18° North 455 524 33,000  Level Indianapolis Center
Sat 08:49:48 AM 38.6831 -80.5747 18° North 456 525 33,000  Level Indianapolis Center
Sat 08:50:50 AM 38.8039 -80.5225 19° North 456 525 33,000  Level Indianapolis Center
Sat 08:51:51 AM 38.9250 -80.4703 19° North 457 526 33,000  Level Indianapolis Center
Sat 08:52:53 AM 39.0478 -80.4175 18° North 461 531 33,000  Level Indianapolis Center
Sat 08:53:55 AM 39.1686 -80.3653 19° North 461 531 33,000  Level Indianapolis Center
Sat 08:54:56 AM 39.2897 -80.3139 18° North 461 531 33,000  Level Indianapolis Center
Sat 08:55:58 AM 39.4097 -80.2617 19° North 459 528 33,000  Level Indianapolis Center
Sat 08:57:00 AM 39.5528 -80.1983 19° North 456 525 33,000  Level Indianapolis Center
Sat 08:58:01 AM 39.6733 -80.1467 18° North 455 524 33,000  Level Indianapolis Center
Sat 08:59:21 AM 39.8128 -80.0875 18° North 452 520 33,000  Level Cleveland Center
Sat 09:00:23 AM 39.9553 -80.0253 19° North 451 519 33,000  Level Cleveland Center
Sat 09:01:24 AM 40.0719 -79.9725 19° North 449 517 33,000  Level Cleveland Center
Sat 09:02:26 AM 40.1897 -79.9200 19° North 449 517 33,000 -195 Level Cleveland Center
Sat 09:03:27 AM 40.3069 -79.8681 19° North 450 518 32,600 -585 Descending Cleveland Center
Sat 09:04:29 AM 40.4247 -79.8147 19° North 452 520 31,800 -683 Descending Cleveland Center
Sat 09:05:30 AM 40.5431 -79.7619 19° North 452 520 31,200 -390 Descending Cleveland Center
Sat 09:06:32 AM 40.6847 -79.6981 19° North 452 520 31,000 -98 Descending Cleveland Center
Sat 09:07:33 AM 40.8056 -79.6439 19° North 456 525 31,000 -439 Level Cleveland Center
Sat 09:08:35 AM 40.9253 -79.5892 19° North 456 525 30,100 -878 Descending Cleveland Center
Sat 09:09:36 AM 41.0453 -79.5350 19° North 457 526 29,200 -927 Descending Cleveland Center
Sat 09:10:38 AM 41.1658 -79.4786 19° North 458 527 28,200 -968 Descending Cleveland Center
Sat 09:11:40 AM 41.2867 -79.4244 19° North 458 527 27,200 -976 Descending Cleveland Center
Sat 09:12:41 AM 41.4119 -79.3658 19° North 460 529 26,200 -1,122 Descending Cleveland Center
Sat 09:13:43 AM 41.5497 -79.3019 19° North 438 504 24,900 -1,171 Descending Cleveland Center
Sat 09:14:44 AM 41.6572 -79.2783 North 398 458 23,800 -1,122 Descending Cleveland Center
Sat 09:15:46 AM 41.7553 -79.2569 North 397 457 22,600 -1,306 Descending Cleveland Center
Sat 09:16:48 AM 41.8650 -79.2339 North 400 460 21,100 -1,415 Descending Cleveland Center
Sat 09:17:49 AM 41.9783 -79.2069 10° North 373 429 19,700 -1,512 Descending Cleveland Center
Sat 09:18:51 AM 42.0739 -79.1847 10° North 351 404 18,000 -1,790 Descending Cleveland Center
Sat 09:19:53 AM 42.1631 -79.1514 15° North 344 396 16,000 -2,049 Descending Cleveland Center
Sat 09:20:54 AM 42.2575 -79.0581 36° Northeast 355 409 13,800 -1,951 Descending Cleveland Center
Sat 09:21:56 AM 42.3336 -78.9822 36° Northeast 343 395 12,000 -1,355 Descending Cleveland Center
Sat 09:22:58 AM 42.4072 -78.9103 36° Northeast 328 377 11,000 -732 Descending Cleveland Center
Sat 09:23:59 AM 42.4703 -78.8475 36° Northeast 308 354 10,500 -1,122 Descending Cleveland Center
Sat 09:25:01 AM 42.5478 -78.7683 37° Northeast 297 342 8,700 -1,694 Descending Cleveland Center
Sat 09:26:03 AM 42.6094 -78.7058 37° Northeast 292 336 7,000 -1,548 Descending Cleveland Center
Sat 09:27:05 AM 42.6825 -78.6589 25° Northeast 282 325 5,500 -1,073 Descending Cleveland Center
Sat 09:28:06 AM 42.7567 -78.6403 10° North 261 300 4,800 -780 Descending Cleveland Center
Sat 09:29:08 AM 42.8331 -78.6264 North 260 299 3,900 -634 Descending Cleveland Center
Sat 09:30:09 AM 42.8931 -78.6222 North 230 265 3,500 -195 Descending Cleveland Center
Sat 09:31:11 AM 42.9500 -78.6344 351° North 201 231 3,500  Level Cleveland Center
Sat 09:32:13 AM 43.0056 -78.6461 351° North 198 228 3,500 -341 Level Cleveland Center
Sat 09:33:14 AM 43.0628 -78.6628 348° North 200 230 2,800 -585 Descending Cleveland Center
Sat 09:34:16 AM 43.1003 -78.7217 311° West 201 231 2,300 -242 Descending Cleveland Center
Sat 09:35:18 AM 43.1081 -78.7792 281° West 166 191 2,300 -195 Level Cleveland Center
Sat 09:36:19 AM 43.1086 -78.8328 271° West 136 157 1,900 -390 Descending Cleveland Center
Sat 09:37:21 AM 43.1083 -78.8725 269° West 124 143 1,500 -387 Descending Cleveland Center

Login

Don't have an account? Register now (free) for customized features, flight alerts, and more!